Time;durP1;ratioP1;P1;durP2;ratioP2;P2;SDS_P1;SDS_P2;PMS_P1;PMS_P2;Temp;Humidity;BMP_temperature;BMP_pressure;BME280_temperature;BME280_humidity;BME280_pressure;Samples;Min_cycle;Max_cycle;Signal;HPM_P1;HPM_P2
2022/11/24 00:02:05;;;;;;;20.20;3.70;;;8.50;99.90;;;;;;4964354;28;20034;-61
2022/11/24 00:04:30;;;;;;;25.90;4.07;;;8.40;99.90;;;;;;4963409;28;20046;-61
2022/11/24 00:06:56;;;;;;;19.85;3.75;;;8.40;99.90;;;;;;4965250;28;20035;-61
2022/11/24 00:09:21;;;;;;;25.25;3.78;;;8.30;99.90;;;;;;4956545;28;20082;-61
2022/11/24 00:11:47;;;;;;;21.20;3.67;;;8.30;99.90;;;;;;4966788;28;20498;-61
2022/11/24 00:14:12;;;;;;;17.20;3.38;;;8.40;99.90;;;;;;4960791;28;20031;-62
2022/11/24 00:16:38;;;;;;;17.58;3.63;;;8.40;99.90;;;;;;4963020;28;20039;-61
2022/11/24 00:19:07;;;;;;;25.77;3.83;;;8.50;99.90;;;;;;4961555;28;20031;-61
2022/11/24 00:21:34;;;;;;;20.08;3.65;;;8.40;99.90;;;;;;4960738;28;20039;-62
2022/11/24 00:24:00;;;;;;;27.98;3.53;;;8.50;99.90;;;;;;4960293;28;20039;-62
2022/11/24 00:26:29;;;;;;;25.75;4.45;;;8.40;99.90;;;;;;4961136;28;20038;-62
2022/11/24 00:28:58;;;;;;;23.90;3.60;;;8.40;99.90;;;;;;4959442;28;20039;-61
2022/11/24 00:31:29;;;;;;;16.58;3.47;;;8.40;99.90;;;;;;4965282;28;20117;-61
2022/11/24 00:33:59;;;;;;;15.88;3.35;;;8.40;99.90;;;;;;4968356;28;20467;-61
2022/11/24 00:36:27;;;;;;;29.35;3.97;;;8.40;99.90;;;;;;4968943;28;20046;-61
2022/11/24 00:38:57;;;;;;;21.67;3.60;;;8.40;99.90;;;;;;4969277;28;20069;-61
2022/11/24 00:41:25;;;;;;;20.90;3.38;;;8.40;99.90;;;;;;4964000;28;20031;-61
2022/11/24 00:43:51;;;;;;;21.88;3.70;;;8.40;99.90;;;;;;4972624;28;20124;-61
2022/11/24 00:46:18;;;;;;;18.98;3.03;;;8.50;99.90;;;;;;4972686;28;20038;-61
2022/11/24 00:48:44;;;;;;;21.30;3.83;;;8.20;99.90;;;;;;4968824;28;20062;-61
2022/11/24 00:51:11;;;;;;;19.23;4.05;;;8.30;99.90;;;;;;4969198;28;20125;-61
2022/11/24 00:53:37;;;;;;;20.10;3.08;;;8.30;99.90;;;;;;4969851;28;20049;-61
2022/11/24 00:56:03;;;;;;;22.48;3.88;;;8.40;99.90;;;;;;4967199;28;20137;-61
2022/11/24 00:58:30;;;;;;;21.77;4.32;;;8.20;99.90;;;;;;4972696;28;20975;-61
2022/11/24 01:01:01;;;;;;;26.23;3.83;;;8.20;99.90;;;;;;4966495;28;20043;-61
2022/11/24 01:03:27;;;;;;;18.52;3.13;;;8.20;99.90;;;;;;4968768;28;20046;-61
2022/11/24 01:05:53;;;;;;;17.10;3.65;;;8.30;99.90;;;;;;4968969;28;20043;-61
2022/11/24 01:08:18;;;;;;;19.02;3.53;;;8.40;99.90;;;;;;4967161;28;20026;-61
2022/11/24 01:10:44;;;;;;;15.85;2.65;;;8.30;99.90;;;;;;4967853;28;20877;-61
2022/11/24 01:13:11;;;;;;;12.90;2.92;;;8.30;99.90;;;;;;4968438;28;20367;-61
2022/11/24 01:15:36;;;;;;;21.17;3.78;;;8.30;99.90;;;;;;4971337;28;20039;-61
2022/11/24 01:18:02;;;;;;;17.58;2.78;;;8.30;99.90;;;;;;4968077;28;20121;-61
2022/11/24 01:20:28;;;;;;;15.88;3.17;;;8.40;99.90;;;;;;4973348;28;20109;-61
2022/11/24 01:22:54;;;;;;;12.35;3.42;;;8.50;99.90;;;;;;4970176;28;20114;-62
2022/11/24 01:25:19;;;;;;;22.98;3.22;;;8.50;99.90;;;;;;4969365;28;20383;-61
2022/11/24 01:27:45;;;;;;;21.23;3.70;;;8.60;99.90;;;;;;4968160;28;20054;-61
2022/11/24 01:30:10;;;;;;;22.42;4.00;;;8.70;99.90;;;;;;4968606;28;20027;-61
2022/11/24 01:32:36;;;;;;;23.15;4.53;;;8.70;99.90;;;;;;4967102;28;20038;-61
2022/11/24 01:35:05;;;;;;;16.52;3.90;;;8.80;99.90;;;;;;4968656;28;20371;-61
2022/11/24 01:37:31;;;;;;;21.35;4.18;;;8.70;99.90;;;;;;4976986;28;20390;-62
2022/11/24 01:39:56;;;;;;;16.33;4.05;;;8.60;99.90;;;;;;4974311;28;20063;-61
2022/11/24 01:42:22;;;;;;;19.50;3.50;;;8.70;99.90;;;;;;4965473;28;20114;-61
2022/11/24 01:45:10;;;;;;;19.48;3.58;;;8.60;99.90;;;;;;4974167;28;20031;-61
2022/11/24 01:47:39;;;;;;;20.17;3.15;;;8.60;99.90;;;;;;4966085;28;20034;-62
2022/11/24 01:50:14;;;;;;;13.65;3.10;;;8.60;99.90;;;;;;4960330;28;20431;-61
2022/11/24 01:52:47;;;;;;;20.10;3.38;;;8.60;99.90;;;;;;4967572;28;20042;-61
2022/11/24 01:55:18;;;;;;;16.70;3.85;;;8.50;99.90;;;;;;4969134;28;20038;-61
2022/11/24 01:57:50;;;;;;;22.13;3.83;;;8.40;99.90;;;;;;4964551;28;20306;-61
2022/11/24 02:00:17;;;;;;;20.92;3.13;;;8.40;99.90;;;;;;4965248;28;20458;-61
2022/11/24 02:02:44;;;;;;;16.40;3.10;;;8.40;99.90;;;;;;4965062;28;20031;-61
2022/11/24 02:05:18;;;;;;;16.67;3.72;;;8.30;99.90;;;;;;4966152;28;20042;-61
2022/11/24 02:07:45;;;;;;;18.13;3.90;;;8.30;99.90;;;;;;4966799;28;20077;-61
2022/11/24 02:10:20;;;;;;;22.55;3.65;;;8.30;99.90;;;;;;4967497;28;20066;-62
2022/11/24 02:12:49;;;;;;;19.67;3.50;;;8.30;99.90;;;;;;4971472;28;20042;-61
2022/11/24 02:15:15;;;;;;;20.92;3.25;;;8.30;99.90;;;;;;4965770;28;20080;-62
2022/11/24 02:17:41;;;;;;;24.50;4.00;;;8.20;99.90;;;;;;4966036;28;20043;-61
2022/11/24 02:20:09;;;;;;;24.35;3.83;;;8.20;99.90;;;;;;4966751;28;21293;-61
2022/11/24 02:23:07;;;;;;;19.42;3.20;;;8.20;99.90;;;;;;4966184;28;20058;-62
2022/11/24 02:25:38;;;;;;;19.10;3.25;;;8.20;99.90;;;;;;4968282;28;20061;-61
2022/11/24 02:28:07;;;;;;;19.27;3.25;;;8.20;99.90;;;;;;4967013;28;20046;-62
2022/11/24 02:30:34;;;;;;;18.20;3.80;;;8.20;99.90;;;;;;4970222;28;20182;-61
2022/11/24 02:33:00;;;;;;;20.80;3.80;;;8.20;99.90;;;;;;4962698;28;20092;-61
2022/11/24 02:35:26;;;;;;;22.23;3.70;;;8.20;99.90;;;;;;4963740;28;20042;-61
2022/11/24 02:37:52;;;;;;;17.67;3.53;;;8.30;99.90;;;;;;4964919;28;20169;-62
2022/11/24 02:40:24;;;;;;;16.00;3.55;;;8.30;99.90;;;;;;4965127;28;20513;-61
2022/11/24 02:42:57;;;;;;;16.33;3.75;;;8.30;99.90;;;;;;4961769;28;20090;-61
2022/11/24 02:45:23;;;;;;;19.23;3.35;;;8.40;99.90;;;;;;4962453;28;20043;-61
2022/11/24 02:47:49;;;;;;;19.75;3.15;;;8.40;99.90;;;;;;4968716;28;20035;-62
2022/11/24 02:50:15;;;;;;;21.35;3.97;;;8.40;99.90;;;;;;4966003;28;20046;-61
2022/11/24 02:52:40;;;;;;;16.13;3.55;;;8.50;99.90;;;;;;4966390;28;20101;-62
2022/11/24 02:55:06;;;;;;;22.58;4.00;;;8.50;99.90;;;;;;4971871;28;20427;-61
2022/11/24 02:57:32;;;;;;;21.50;3.13;;;8.50;99.90;;;;;;4963004;28;20078;-61
2022/11/24 02:59:57;;;;;;;14.77;3.05;;;8.50;99.90;;;;;;4963713;28;20027;-62
2022/11/24 03:02:23;;;;;;;16.17;3.72;;;8.50;99.90;;;;;;4966584;28;20035;-61
2022/11/24 03:04:48;;;;;;;19.38;3.22;;;8.40;99.90;;;;;;4966755;28;20027;-62
2022/11/24 03:07:14;;;;;;;19.05;3.92;;;8.40;99.90;;;;;;4960568;28;20035;-61
2022/11/24 03:09:39;;;;;;;15.95;3.25;;;8.30;99.90;;;;;;4967091;28;20030;-61
2022/11/24 03:12:05;;;;;;;21.50;3.95;;;8.40;99.90;;;;;;4967453;28;20035;-62
2022/11/24 03:14:31;;;;;;;21.27;3.40;;;8.30;99.90;;;;;;4967266;28;20027;-61
2022/11/24 03:16:57;;;;;;;14.25;3.17;;;8.30;99.90;;;;;;4963189;28;20057;-61
2022/11/24 03:19:22;;;;;;;16.45;3.70;;;8.20;99.90;;;;;;4965246;28;20130;-62
2022/11/24 03:21:48;;;;;;;18.17;3.83;;;8.20;99.90;;;;;;4967074;28;20426;-62
2022/11/24 03:24:13;;;;;;;20.30;3.75;;;8.10;99.90;;;;;;4962698;28;20125;-61
2022/11/24 03:26:40;;;;;;;21.65;3.47;;;8.10;99.90;;;;;;4969618;28;20042;-62
2022/11/24 03:29:06;;;;;;;17.08;3.17;;;8.10;99.90;;;;;;4965017;28;20556;-62
2022/11/24 03:31:31;;;;;;;15.80;3.33;;;8.20;99.90;;;;;;4962853;28;20719;-62
2022/11/24 03:33:57;;;;;;;18.35;3.60;;;8.20;99.90;;;;;;4961758;28;20406;-61
2022/11/24 03:36:22;;;;;;;23.20;3.63;;;8.20;99.90;;;;;;4962585;28;20407;-61
2022/11/24 03:38:48;;;;;;;19.27;3.83;;;8.30;99.90;;;;;;4967298;28;20239;-61
2022/11/24 03:41:14;;;;;;;21.85;3.40;;;8.30;99.90;;;;;;4961677;28;20370;-61
2022/11/24 03:43:39;;;;;;;17.10;3.78;;;8.40;99.90;;;;;;4967036;28;20030;-62
2022/11/24 03:46:05;;;;;;;23.70;4.07;;;8.40;99.90;;;;;;4960695;28;20122;-61
2022/11/24 03:48:30;;;;;;;22.10;3.15;;;8.60;99.90;;;;;;4968824;28;20034;-61
2022/11/24 03:50:58;;;;;;;30.45;4.10;;;8.60;99.90;;;;;;4965288;28;20189;-61
2022/11/24 03:53:25;;;;;;;22.17;4.40;;;8.60;99.90;;;;;;4959217;28;20035;-61
2022/11/24 03:55:52;;;;;;;24.95;3.53;;;8.60;99.90;;;;;;4963086;28;20414;-61
2022/11/24 03:58:18;;;;;;;27.25;5.07;;;8.60;99.90;;;;;;4963102;28;20074;-61
2022/11/24 04:00:44;;;;;;;24.38;4.28;;;8.70;99.90;;;;;;4970953;28;20125;-61
2022/11/24 04:03:09;;;;;;;19.50;3.90;;;8.80;99.90;;;;;;4967074;28;20166;-61
2022/11/24 04:05:35;;;;;;;30.23;4.10;;;8.70;99.90;;;;;;4965973;28;20086;-61
2022/11/24 04:08:04;;;;;;;18.27;3.33;;;8.80;99.90;;;;;;4964071;28;20409;-62
2022/11/24 04:10:32;;;;;;;22.45;3.90;;;8.80;99.90;;;;;;4958286;28;20032;-61
2022/11/24 04:12:58;;;;;;;26.50;4.43;;;8.80;99.90;;;;;;4960062;28;21726;-61
2022/11/24 04:15:23;;;;;;;23.98;3.70;;;8.80;99.90;;;;;;4960437;28;20043;-61
2022/11/24 04:17:49;;;;;;;22.75;3.85;;;8.90;99.90;;;;;;4968036;28;20690;-61
2022/11/24 04:20:15;;;;;;;18.30;3.72;;;9.00;99.90;;;;;;4962860;28;20031;-61
2022/11/24 04:22:42;;;;;;;19.02;3.80;;;8.90;99.90;;;;;;4966553;28;20030;-62
2022/11/24 04:25:09;;;;;;;23.85;4.25;;;8.90;99.90;;;;;;4960595;28;20031;-61
2022/11/24 04:27:36;;;;;;;26.45;4.28;;;9.00;99.90;;;;;;4964611;28;20568;-61
2022/11/24 04:30:05;;;;;;;24.77;4.38;;;9.10;99.90;;;;;;4971644;28;20084;-61
2022/11/24 04:32:31;;;;;;;26.10;4.35;;;9.00;99.90;;;;;;4962663;28;20482;-61
2022/11/24 04:34:57;;;;;;;26.95;4.45;;;8.90;99.90;;;;;;4966918;28;20042;-61
2022/11/24 04:37:22;;;;;;;30.45;4.93;;;9.00;99.90;;;;;;4970228;28;20030;-61
2022/11/24 04:39:48;;;;;;;24.05;4.07;;;8.90;99.90;;;;;;4964359;28;20023;-62
2022/11/24 04:42:13;;;;;;;24.13;3.67;;;9.00;99.90;;;;;;4960727;28;20031;-62
2022/11/24 04:44:39;;;;;;;28.40;3.90;;;9.10;99.90;;;;;;4989049;28;20027;-61
2022/11/24 04:47:05;;;;;;;20.83;4.45;;;9.10;99.90;;;;;;4966143;28;20493;-61
2022/11/24 04:49:31;;;;;;;22.38;4.20;;;9.10;99.90;;;;;;4969728;28;20537;-62
2022/11/24 04:51:57;;;;;;;23.45;4.70;;;9.00;99.90;;;;;;4963512;28;20174;-62
2022/11/24 04:54:22;;;;;;;23.17;4.93;;;9.00;99.90;;;;;;4964427;28;20117;-61
2022/11/24 04:56:52;;;;;;;27.23;4.97;;;9.10;99.90;;;;;;4969483;28;20039;-61
2022/11/24 04:59:18;;;;;;;24.58;4.80;;;9.00;99.90;;;;;;4961328;28;20039;-62
2022/11/24 05:01:45;;;;;;;25.20;4.05;;;9.00;99.90;;;;;;4962498;28;20210;-61
2022/11/24 05:04:13;;;;;;;22.70;3.95;;;9.00;99.90;;;;;;4961091;28;20180;-61
2022/11/24 05:06:39;;;;;;;26.75;4.15;;;9.10;99.90;;;;;;4964666;28;20049;-61
2022/11/24 05:09:06;;;;;;;23.67;4.38;;;9.10;99.90;;;;;;4959314;28;20482;-61
2022/11/24 05:11:33;;;;;;;19.88;4.13;;;9.20;99.90;;;;;;4963047;28;20089;-61
2022/11/24 05:13:59;;;;;;;25.45;4.35;;;9.20;99.90;;;;;;4960277;28;20393;-62
2022/11/24 05:16:24;;;;;;;30.85;4.35;;;9.00;99.90;;;;;;4956525;28;20043;-62
2022/11/24 05:18:50;;;;;;;27.55;4.18;;;9.10;99.90;;;;;;4962015;28;20047;-60
2022/11/24 05:21:15;;;;;;;29.17;4.85;;;9.20;99.90;;;;;;4968983;28;20043;-60
2022/11/24 05:23:41;;;;;;;26.65;4.32;;;9.20;99.90;;;;;;4974673;28;20499;-61
2022/11/24 05:26:06;;;;;;;27.10;4.10;;;9.20;99.90;;;;;;4966414;28;20038;-60
2022/11/24 05:28:32;;;;;;;27.60;4.97;;;9.20;99.90;;;;;;4977860;28;20157;-61
2022/11/24 05:31:01;;;;;;;24.40;4.55;;;9.20;99.90;;;;;;4965366;28;20033;-60
2022/11/24 05:33:28;;;;;;;24.73;4.65;;;9.30;99.90;;;;;;4963950;28;20640;-61
2022/11/24 05:35:58;;;;;;;28.23;4.78;;;9.20;99.90;;;;;;4966794;28;20575;-60
2022/11/24 05:38:25;;;;;;;30.00;4.65;;;9.20;99.90;;;;;;4962877;28;20047;-60
2022/11/24 05:40:51;;;;;;;24.67;4.30;;;9.20;99.90;;;;;;4965153;28;20042;-60
2022/11/24 05:43:17;;;;;;;27.17;4.90;;;9.20;99.90;;;;;;4972451;28;20034;-60
2022/11/24 05:45:43;;;;;;;22.25;3.90;;;9.20;99.90;;;;;;4967934;28;20511;-60
2022/11/24 05:48:14;;;;;;;24.67;4.65;;;9.20;99.90;;;;;;4962799;28;20106;-61
2022/11/24 05:50:40;;;;;;;26.63;4.60;;;9.20;99.90;;;;;;4973767;28;20561;-60
2022/11/24 05:53:09;;;;;;;30.92;4.32;;;9.20;99.90;;;;;;4968684;28;20037;-61
2022/11/24 05:55:35;;;;;;;26.15;4.50;;;9.10;99.90;;;;;;4967062;28;20041;-61
2022/11/24 05:58:04;;;;;;;20.33;4.22;;;9.10;99.90;;;;;;4967946;28;20031;-60
2022/11/24 06:00:31;;;;;;;33.75;4.97;;;9.10;99.90;;;;;;4966325;28;20035;-60
2022/11/24 06:02:57;;;;;;;23.08;4.03;;;9.20;99.90;;;;;;4963418;28;20121;-61
2022/11/24 06:05:24;;;;;;;29.10;5.03;;;9.20;99.90;;;;;;4965311;28;20031;-61
2022/11/24 06:07:51;;;;;;;26.33;4.25;;;9.10;99.90;;;;;;4973861;28;20035;-60
2022/11/24 06:10:17;;;;;;;24.45;3.95;;;9.10;99.90;;;;;;4967636;28;20035;-60
2022/11/24 06:12:43;;;;;;;23.30;4.20;;;9.00;99.90;;;;;;4965942;28;20049;-61
2022/11/24 06:15:10;;;;;;;23.23;3.83;;;9.00;99.90;;;;;;4962670;28;20118;-60
2022/11/24 06:17:36;;;;;;;29.30;5.15;;;9.10;99.90;;;;;;4965349;28;20042;-61
2022/11/24 06:20:02;;;;;;;21.27;3.28;;;9.00;99.90;;;;;;4971356;28;20024;-60
2022/11/24 06:22:27;;;;;;;22.50;4.00;;;9.10;99.90;;;;;;4963360;28;20122;-60
2022/11/24 06:24:53;;;;;;;25.75;4.55;;;9.00;99.90;;;;;;4963617;28;20296;-60
2022/11/24 06:27:19;;;;;;;17.92;3.65;;;9.00;99.90;;;;;;4964874;28;20126;-60
2022/11/24 06:29:44;;;;;;;20.25;3.75;;;9.00;99.90;;;;;;4967091;28;20037;-61
2022/11/24 06:32:10;;;;;;;20.77;3.90;;;9.00;99.90;;;;;;4979328;28;20034;-61
2022/11/24 06:34:35;;;;;;;23.75;3.45;;;9.00;99.90;;;;;;4962839;28;20038;-60
2022/11/24 06:37:01;;;;;;;22.98;4.03;;;9.00;99.90;;;;;;4968763;28;20038;-60
2022/11/24 06:39:27;;;;;;;19.35;3.75;;;9.00;99.90;;;;;;4966274;28;20038;-61
2022/11/24 06:41:52;;;;;;;24.05;3.90;;;9.00;99.90;;;;;;4964785;28;20031;-60
2022/11/24 06:44:18;;;;;;;25.75;3.70;;;8.80;99.90;;;;;;4958360;28;20873;-60
2022/11/24 06:46:44;;;;;;;19.05;3.70;;;8.80;99.90;;;;;;4970818;28;20042;-60
2022/11/24 06:49:10;;;;;;;17.90;3.33;;;8.80;99.90;;;;;;4962087;28;20482;-60
2022/11/24 06:51:36;;;;;;;21.42;3.40;;;8.80;99.90;;;;;;4963433;28;20031;-60
2022/11/24 06:54:05;;;;;;;19.90;3.20;;;8.80;99.90;;;;;;4961007;28;20042;-61
2022/11/24 06:56:31;;;;;;;17.00;3.50;;;8.90;99.90;;;;;;4963974;28;20344;-60
2022/11/24 06:58:57;;;;;;;18.40;3.22;;;9.00;99.90;;;;;;4959667;28;20122;-60
2022/11/24 07:01:25;;;;;;;18.35;2.90;;;9.10;99.90;;;;;;4965246;28;20037;-61
2022/11/24 07:03:52;;;;;;;18.52;3.28;;;9.10;99.90;;;;;;4959055;28;20066;-60
2022/11/24 07:06:18;;;;;;;24.38;3.28;;;9.10;99.90;;;;;;4967182;28;20029;-60
2022/11/24 07:08:45;;;;;;;19.48;2.97;;;9.10;99.90;;;;;;4958239;28;20413;-61
2022/11/24 07:11:14;;;;;;;16.70;3.08;;;9.10;99.90;;;;;;4962526;28;20450;-61
2022/11/24 07:13:43;;;;;;;18.23;2.75;;;9.10;99.90;;;;;;4966842;28;20037;-60
2022/11/24 07:16:15;;;;;;;13.60;2.65;;;9.10;99.90;;;;;;4961446;28;20514;-61
2022/11/24 07:18:41;;;;;;;14.02;2.67;;;9.10;99.90;;;;;;4961683;28;20394;-61
2022/11/24 07:21:07;;;;;;;13.77;2.15;;;9.20;99.90;;;;;;4961375;28;20033;-62
2022/11/24 07:23:32;;;;;;;13.23;1.83;;;9.00;99.90;;;;;;4962148;28;20043;-62
2022/11/24 07:26:00;;;;;;;9.38;1.65;;;9.00;99.90;;;;;;4959272;28;20138;-61
2022/11/24 07:28:25;;;;;;;8.10;2.20;;;9.00;99.90;;;;;;4958922;28;20043;-61
2022/11/24 07:30:51;;;;;;;7.97;1.63;;;9.10;99.90;;;;;;4964662;28;20038;-61
2022/11/24 07:33:20;;;;;;;8.02;1.70;;;9.20;99.90;;;;;;4966292;28;20027;-62
2022/11/24 07:35:45;;;;;;;19.30;2.92;;;9.20;99.90;;;;;;4959205;28;20041;-61
2022/11/24 07:38:11;;;;;;;4.55;1.63;;;9.20;99.90;;;;;;4962525;28;20031;-61
2022/11/24 07:40:36;;;;;;;6.95;1.23;;;9.20;99.90;;;;;;4962400;28;20035;-62
2022/11/24 07:43:02;;;;;;;5.57;1.20;;;9.20;99.90;;;;;;4960591;28;20505;-62
2022/11/24 07:45:27;;;;;;;4.30;0.88;;;9.20;99.90;;;;;;4964779;28;20801;-61
2022/11/24 07:47:53;;;;;;;7.07;1.02;;;9.30;99.90;;;;;;4964962;28;20038;-61
2022/11/24 07:50:19;;;;;;;4.60;1.48;;;9.20;99.90;;;;;;4965257;28;20031;-62
2022/11/24 07:52:45;;;;;;;5.18;1.35;;;9.30;99.90;;;;;;4968937;28;20030;-61
2022/11/24 07:55:10;;;;;;;6.85;1.40;;;9.20;99.90;;;;;;4965326;28;20082;-62
2022/11/24 07:57:36;;;;;;;5.18;0.90;;;9.10;99.90;;;;;;4966448;28;20109;-62
2022/11/24 08:00:04;;;;;;;6.50;1.33;;;9.10;99.90;;;;;;4964039;28;20027;-62
2022/11/24 08:02:30;;;;;;;6.25;1.40;;;9.20;99.90;;;;;;4960186;28;20746;-61
2022/11/24 08:04:55;;;;;;;4.13;1.10;;;9.20;99.90;;;;;;4979599;28;20045;-62
2022/11/24 08:07:21;;;;;;;8.00;1.60;;;9.20;99.90;;;;;;4963709;28;20049;-62
2022/11/24 08:09:49;;;;;;;4.78;1.05;;;9.30;99.90;;;;;;4962696;28;20041;-62
2022/11/24 08:12:16;;;;;;;3.78;1.00;;;9.30;99.90;;;;;;4956164;28;20499;-62
2022/11/24 08:14:42;;;;;;;8.93;1.27;;;9.40;99.90;;;;;;4959074;28;20722;-61
2022/11/24 08:17:07;;;;;;;6.80;1.45;;;9.30;99.90;;;;;;4960839;28;20051;-62
2022/11/24 08:19:33;;;;;;;6.60;1.60;;;9.50;99.90;;;;;;4962872;28;20058;-62
2022/11/24 08:21:59;;;;;;;6.10;1.08;;;9.40;99.90;;;;;;4980121;28;20438;-62
2022/11/24 08:24:26;;;;;;;5.68;1.20;;;9.40;99.90;;;;;;4963513;28;20062;-61
2022/11/24 08:26:51;;;;;;;11.18;1.60;;;9.40;99.90;;;;;;4977644;28;20047;-60
2022/11/24 08:29:17;;;;;;;9.10;1.83;;;9.50;99.90;;;;;;4963530;28;20588;-60
2022/11/24 08:31:44;;;;;;;6.28;1.48;;;9.50;99.90;;;;;;4963080;28;20237;-61
2022/11/24 08:34:09;;;;;;;5.78;1.63;;;9.40;99.90;;;;;;4959477;28;20122;-61
2022/11/24 08:36:35;;;;;;;7.72;1.73;;;9.50;99.90;;;;;;4966275;28;20104;-61
2022/11/24 08:39:01;;;;;;;9.15;1.60;;;9.40;99.90;;;;;;4964037;28;20054;-61
2022/11/24 08:41:28;;;;;;;9.15;1.50;;;9.40;99.90;;;;;;4963842;28;20033;-62
2022/11/24 08:43:54;;;;;;;7.00;2.30;;;9.50;99.90;;;;;;4963947;28;20122;-62
2022/11/24 08:46:20;;;;;;;10.02;1.73;;;9.50;99.90;;;;;;4954985;28;20388;-62
2022/11/24 08:48:50;;;;;;;8.55;1.85;;;9.50;99.90;;;;;;4964422;28;20381;-62
2022/11/24 08:51:18;;;;;;;9.60;2.05;;;9.60;99.90;;;;;;4961816;28;20035;-61
2022/11/24 08:53:44;;;;;;;7.30;1.75;;;9.60;99.90;;;;;;4968558;28;20030;-62
2022/11/24 08:56:11;;;;;;;9.98;1.50;;;9.60;99.90;;;;;;4959069;28;20498;-62
2022/11/24 08:58:37;;;;;;;11.40;2.38;;;9.60;99.90;;;;;;4965270;28;20394;-63
2022/11/24 09:01:09;;;;;;;9.20;1.58;;;9.60;99.90;;;;;;4967503;28;20031;-61
2022/11/24 09:03:36;;;;;;;11.20;1.88;;;9.60;99.90;;;;;;4962619;28;20031;-62
2022/11/24 09:06:02;;;;;;;16.38;2.63;;;9.60;99.90;;;;;;4962198;28;20094;-62
2022/11/24 09:08:29;;;;;;;9.45;1.98;;;9.70;99.90;;;;;;4966118;28;20199;-62
2022/11/24 09:10:59;;;;;;;11.85;2.25;;;9.80;99.90;;;;;;4965387;28;20710;-61
2022/11/24 09:13:25;;;;;;;13.55;3.03;;;9.80;99.90;;;;;;4960096;28;21722;-62
2022/11/24 09:15:50;;;;;;;12.77;2.30;;;9.80;99.90;;;;;;4962431;28;20042;-61
2022/11/24 09:18:16;;;;;;;10.05;2.38;;;9.80;99.90;;;;;;4964022;28;20152;-61
2022/11/24 09:20:41;;;;;;;11.95;2.55;;;9.80;99.90;;;;;;4966520;28;20481;-62
2022/11/24 09:23:07;;;;;;;8.07;2.00;;;9.70;99.90;;;;;;4964367;28;20398;-62
2022/11/24 09:25:32;;;;;;;12.20;2.70;;;9.70;99.90;;;;;;4964545;28;20035;-60
2022/11/24 09:27:58;;;;;;;10.48;2.72;;;9.80;99.90;;;;;;4967987;28;20038;-60
2022/11/24 09:30:25;;;;;;;14.68;3.03;;;9.80;99.90;;;;;;4969197;28;20034;-61
2022/11/24 09:32:50;;;;;;;15.32;2.85;;;9.90;99.90;;;;;;4964275;28;20058;-61
2022/11/24 09:35:16;;;;;;;13.43;2.90;;;9.90;99.90;;;;;;4965573;28;20062;-61
2022/11/24 09:37:43;;;;;;;13.63;2.60;;;9.90;99.90;;;;;;4965394;28;20085;-61
2022/11/24 09:40:13;;;;;;;12.82;2.88;;;9.80;99.90;;;;;;4962125;28;20049;-61
2022/11/24 09:42:41;;;;;;;18.05;2.72;;;9.80;99.90;;;;;;4965349;28;20034;-61
2022/11/24 09:45:28;;;;;;;12.88;2.70;;;9.80;99.90;;;;;;4968253;28;20494;-61
2022/11/24 09:47:59;;;;;;;17.85;2.75;;;9.80;99.90;;;;;;4980730;28;20046;-62
2022/11/24 09:50:36;;;;;;;11.90;2.75;;;9.80;99.90;;;;;;4964300;28;20069;-61
2022/11/24 09:53:30;;;;;;;10.50;2.60;;;9.80;99.90;;;;;;4964756;28;20557;-62
2022/11/24 09:55:59;;;;;;;13.93;2.85;;;9.90;99.90;;;;;;4962409;28;20592;-62
2022/11/24 09:58:47;;;;;;;13.32;2.35;;;9.90;99.90;;;;;;4963131;28;20035;-62
2022/11/24 10:01:21;;;;;;;11.75;2.83;;;9.90;99.90;;;;;;4965129;28;20031;-62
2022/11/24 10:03:52;;;;;;;16.02;2.95;;;9.90;99.90;;;;;;4961129;28;20121;-61
2022/11/24 10:06:22;;;;;;;11.93;3.00;;;9.90;99.90;;;;;;4967740;28;20053;-62
2022/11/24 10:09:06;;;;;;;16.17;3.30;;;9.90;99.90;;;;;;4963666;28;20093;-62
2022/11/24 10:12:14;;;;;;;14.68;3.05;;;10.00;99.90;;;;;;4965565;28;20049;-62
2022/11/24 10:15:18;;;;;;;16.77;2.42;;;10.10;99.90;;;;;;4958977;28;20027;-61
2022/11/24 10:18:04;;;;;;;12.90;2.70;;;10.10;99.90;;;;;;4964943;28;20146;-61
2022/11/24 10:20:46;;;;;;;17.15;2.83;;;10.20;99.90;;;;;;4968702;28;20039;-61
2022/11/24 10:23:35;;;;;;;15.70;2.88;;;10.10;99.90;;;;;;4962996;28;20054;-63
2022/11/24 10:26:10;;;;;;;20.17;3.17;;;10.10;99.90;;;;;;4962348;28;20375;-62
2022/11/24 10:28:49;;;;;;;19.70;3.22;;;10.10;99.90;;;;;;4955878;28;20043;-62
2022/11/24 10:31:21;;;;;;;14.82;3.20;;;10.10;99.90;;;;;;4960325;28;20039;-61
2022/11/24 10:33:47;;;;;;;13.05;2.53;;;10.10;99.90;;;;;;4966148;28;20038;-62
2022/11/24 10:36:24;;;;;;;14.48;2.58;;;10.20;99.90;;;;;;4966956;28;20062;-62
2022/11/24 10:38:58;;;;;;;10.40;2.20;;;10.20;99.90;;;;;;4957472;28;20662;-62
2022/11/24 10:41:45;;;;;;;13.40;2.80;;;10.20;99.90;;;;;;4961130;28;20034;-62
2022/11/24 10:44:14;;;;;;;12.43;2.85;;;10.20;99.90;;;;;;4958838;28;20566;-62
2022/11/24 10:46:40;;;;;;;13.88;2.80;;;10.20;99.90;;;;;;4962014;28;20078;-62
2022/11/24 10:49:05;;;;;;;15.93;3.58;;;10.30;99.90;;;;;;4963480;28;20062;-63
2022/11/24 10:51:34;;;;;;;21.70;3.47;;;10.40;99.90;;;;;;4964420;28;20031;-62
2022/11/24 10:54:17;;;;;;;22.15;3.33;;;10.40;99.90;;;;;;4960437;28;20039;-61
2022/11/24 10:56:44;;;;;;;13.05;2.50;;;10.40;99.90;;;;;;4971482;28;20121;-62
2022/11/24 10:59:35;;;;;;;17.15;4.07;;;10.40;99.90;;;;;;4974647;28;20042;-62
2022/11/24 11:02:02;;;;;;;17.05;5.90;;;10.40;99.90;;;;;;4959804;28;20062;-61
2022/11/24 11:04:30;;;;;;;14.25;3.70;;;10.30;99.90;;;;;;4958855;28;20867;-62
2022/11/24 11:07:16;;;;;;;15.05;2.78;;;10.40;99.90;;;;;;4964826;28;20137;-62
2022/11/24 11:09:42;;;;;;;14.70;3.00;;;10.40;99.90;;;;;;4964190;28;20118;-61
2022/11/24 11:12:26;;;;;;;24.67;3.30;;;10.40;99.90;;;;;;4959491;28;20042;-61
2022/11/24 11:14:51;;;;;;;18.45;3.10;;;10.40;99.90;;;;;;4962534;28;20499;-61
2022/11/24 11:17:34;;;;;;;21.50;3.42;;;10.40;99.90;;;;;;4954953;28;20039;-62
2022/11/24 11:20:14;;;;;;;11.02;2.08;;;10.40;99.90;;;;;;4960367;28;20039;-62
2022/11/24 11:22:43;;;;;;;10.90;3.00;;;10.50;99.90;;;;;;4966693;28;20364;-62
2022/11/24 11:25:09;;;;;;;13.48;2.63;;;10.60;99.90;;;;;;4964659;28;20031;-62
2022/11/24 11:27:34;;;;;;;21.33;2.97;;;10.60;99.90;;;;;;4965583;28;20054;-62
2022/11/24 11:30:25;;;;;;;13.75;3.17;;;10.60;99.90;;;;;;4965631;28;20403;-62
2022/11/24 11:32:58;;;;;;;16.92;3.38;;;10.60;99.90;;;;;;4960154;28;20489;-63
2022/11/24 11:35:25;;;;;;;13.50;2.78;;;10.60;99.90;;;;;;4965572;28;20034;-62
2022/11/24 11:38:01;;;;;;;19.52;3.08;;;10.60;99.90;;;;;;4961643;28;20421;-63
2022/11/24 11:40:31;;;;;;;15.77;2.70;;;10.60;99.90;;;;;;4955825;28;20035;-62
2022/11/24 11:43:10;;;;;;;15.95;2.75;;;10.60;99.90;;;;;;4939878;28;20443;-62
2022/11/24 11:45:39;;;;;;;18.88;3.45;;;10.60;99.90;;;;;;4947589;28;20795;-62
2022/11/24 11:48:43;;;;;;;13.05;3.38;;;10.60;99.90;;;;;;4954226;28;20042;-61
2022/11/24 11:51:09;;;;;;;18.83;3.33;;;10.60;99.90;;;;;;4956908;28;20043;-62
2022/11/24 11:53:47;;;;;;;12.75;2.80;;;10.70;99.90;;;;;;4977039;28;20035;-62
2022/11/24 11:56:29;;;;;;;17.85;3.38;;;10.70;99.90;;;;;;4961907;28;20540;-63
2022/11/24 11:59:22;;;;;;;10.27;2.50;;;10.70;99.90;;;;;;4958862;28;20494;-63
2022/11/24 12:02:08;;;;;;;14.73;2.83;;;10.70;99.90;;;;;;4961350;28;20058;-63
2022/11/24 12:04:42;;;;;;;19.08;3.10;;;10.80;99.90;;;;;;4961370;28;20023;-62
2022/11/24 12:07:26;;;;;;;18.25;4.13;;;10.80;99.90;;;;;;4959918;28;20134;-63
2022/11/24 12:10:00;;;;;;;;;;;10.80;99.90;;;;;;4964051;28;20483;-63
2022/11/24 12:12:53;;;;;;;18.90;3.00;;;10.80;99.90;;;;;;4958209;28;20376;-63
2022/11/24 12:15:27;;;;;;;16.05;3.15;;;10.80;99.90;;;;;;4955151;28;20039;-62
2022/11/24 12:18:41;;;;;;;25.10;3.53;;;10.80;99.90;;;;;;4965211;28;20093;-62
2022/11/24 12:21:17;;;;;;;;;;;10.90;99.90;;;;;;4953922;28;20050;-63
2022/11/24 12:24:13;;;;;;;13.85;3.30;;;10.90;99.90;;;;;;4963070;28;19918;-62
2022/11/24 12:26:59;;;;;;;16.45;2.88;;;10.80;99.90;;;;;;4961345;28;20046;-62
2022/11/24 12:29:37;;;;;;;12.95;2.45;;;10.90;99.90;;;;;;4963107;28;20030;-62
2022/11/24 12:32:36;;;;;;;16.10;3.17;;;10.90;99.90;;;;;;4964955;28;20035;-63
2022/11/24 12:35:14;;;;;;;11.55;2.88;;;11.00;99.90;;;;;;4965416;28;20135;-63
2022/11/24 12:38:04;;;;;;;20.35;3.78;;;11.00;99.90;;;;;;4968381;28;20038;-63
2022/11/24 12:41:06;;;;;;;20.58;3.17;;;11.00;99.90;;;;;;4965674;28;20098;-61
2022/11/24 12:43:37;;;;;;;14.88;2.78;;;11.00;99.90;;;;;;4963478;28;20035;-61
2022/11/24 12:46:47;;;;;;;22.23;3.72;;;11.00;99.90;;;;;;4979124;28;20402;-62
2022/11/24 12:49:27;;;;;;;15.13;3.22;;;11.10;99.90;;;;;;4954034;28;20027;-62
2022/11/24 12:52:01;;;;;;;17.85;3.22;;;11.10;99.90;;;;;;4963376;28;20035;-62
2022/11/24 12:54:39;;;;;;;14.50;2.80;;;11.10;99.90;;;;;;4958115;28;21219;-62
2022/11/24 12:57:28;;;;;;;15.00;3.33;;;10.90;99.90;;;;;;4963853;28;20095;-62
2022/11/24 13:00:00;;;;;;;15.02;2.70;;;10.90;99.90;;;;;;4959570;28;20044;-62